Time;durP1;ratioP1;P1;durP2;ratioP2;P2;SDS_P1;SDS_P2;PMS_P1;PMS_P2;Temp;Humidity;BMP_temperature;BMP_pressure;BME280_temperature;BME280_humidity;BME280_pressure;Samples;Min_cycle;Max_cycle;Signal;HPM_P1;HPM_P2
2023/09/01 00:02:15;;;;;;;10.70;5.57;;;;;;;;;;5107538;28;20028;-77
2023/09/01 00:04:40;;;;;;;12.48;5.60;;;;;;;;;;5109130;28;20046;-77
2023/09/01 00:07:06;;;;;;;15.48;6.43;;;;;;;;;;5110031;28;20039;-77
2023/09/01 00:09:31;;;;;;;7.63;5.40;;;;;;;;;;5100468;28;20040;-77
2023/09/01 00:11:56;;;;;;;7.90;5.45;;;;;;;;;;5103046;28;20023;-77
2023/09/01 00:14:22;;;;;;;8.15;4.90;;;;;;;;;;5108445;28;20032;-76
2023/09/01 00:16:47;;;;;;;6.03;5.25;;;;;;;;;;5103513;28;20555;-76
2023/09/01 00:19:12;;;;;;;14.88;5.60;;;;;;;;;;5109142;28;20036;-77
2023/09/01 00:21:39;;;;;;;9.85;5.55;;;;;;;;;;5104586;28;20035;-77
2023/09/01 00:24:04;;;;;;;8.55;4.90;;;;;;;;;;5107755;28;20392;-77
2023/09/01 00:26:29;;;;;;;7.20;5.13;;;;;;;;;;5108436;28;20034;-77
2023/09/01 00:28:55;;;;;;;6.30;4.97;;;;;;;;;;5103939;28;20039;-76
2023/09/01 00:31:20;;;;;;;6.55;5.22;;;;;;;;;;5104603;28;20127;-78
2023/09/01 00:33:46;;;;;;;7.00;4.43;;;;;;;;;;5104168;28;20091;-78
2023/09/01 00:36:12;;;;;;;5.22;4.30;;;;;;;;;;5104577;28;20027;-77
2023/09/01 00:38:37;;;;;;;5.07;4.22;;;;;;;;;;5110722;28;20044;-77
2023/09/01 00:41:02;;;;;;;6.47;4.38;;;;;;;;;;5109225;28;20036;-77
2023/09/01 00:43:27;;;;;;;5.00;3.75;;;;;;;;;;5103628;28;20479;-75
2023/09/01 00:45:53;;;;;;;7.70;4.30;;;;;;;;;;5106440;28;20106;-77
2023/09/01 00:48:19;;;;;;;4.45;3.63;;;;;;;;;;5105998;27;20508;-77
2023/09/01 00:50:48;;;;;;;3.97;3.17;;;;;;;;;;5106145;28;20028;-77
2023/09/01 00:53:14;;;;;;;6.18;3.45;;;;;;;;;;5107417;28;20042;-77
2023/09/01 00:55:39;;;;;;;4.15;3.28;;;;;;;;;;5108654;28;20425;-77
2023/09/01 00:58:05;;;;;;;3.53;3.20;;;;;;;;;;5107704;28;20065;-77
2023/09/01 01:00:32;;;;;;;3.83;3.03;;;;;;;;;;5102025;28;20066;-76
2023/09/01 01:03:00;;;;;;;5.10;3.20;;;;;;;;;;5102209;28;20060;-77
2023/09/01 01:05:40;;;;;;;4.28;3.20;;;;;;;;;;5102207;28;20042;-77
2023/09/01 01:08:23;;;;;;;4.65;3.13;;;;;;;;;;5106215;28;20047;-77
2023/09/01 01:11:06;;;;;;;3.47;3.17;;;;;;;;;;5104251;28;20035;-77
2023/09/01 01:13:43;;;;;;;3.90;3.03;;;;;;;;;;5107025;28;20349;-77
2023/09/01 01:16:09;;;;;;;3.90;3.25;;;;;;;;;;5105564;28;20043;-77
2023/09/01 01:18:36;;;;;;;3.70;3.25;;;;;;;;;;5101762;28;20043;-77
2023/09/01 01:21:16;;;;;;;8.25;3.70;;;;;;;;;;5108174;28;20402;-77
2023/09/01 01:23:42;;;;;;;4.70;3.95;;;;;;;;;;5105554;28;20103;-76
2023/09/01 01:26:12;;;;;;;8.93;4.10;;;;;;;;;;5109852;28;20510;-78
2023/09/01 01:28:38;;;;;;;5.00;4.15;;;;;;;;;;5100316;28;20144;-77
2023/09/01 01:31:04;;;;;;;5.88;4.32;;;;;;;;;;5103386;28;20035;-77
2023/09/01 01:33:43;;;;;;;8.98;4.40;;;;;;;;;;5107205;28;20316;-77
2023/09/01 01:36:18;;;;;;;7.50;4.95;;;;;;;;;;5106500;28;20023;-77
2023/09/01 01:38:45;;;;;;;;;;;;;;;;;;5104450;28;20046;-77
2023/09/01 01:41:20;;;;;;;8.13;3.85;;;;;;;;;;5105469;28;19911;-79
2023/09/01 01:43:49;;;;;;;3.97;3.03;;;;;;;;;;5106638;28;20048;-79
2023/09/01 01:46:15;;;;;;;6.50;4.00;;;;;;;;;;5099164;28;20047;-77
2023/09/01 01:48:40;;;;;;;4.07;3.67;;;;;;;;;;5108236;28;20043;-77
2023/09/01 01:51:06;;;;;;;4.38;3.72;;;;;;;;;;5108207;28;20040;-77
2023/09/01 01:53:35;;;;;;;4.13;3.63;;;;;;;;;;5109123;28;20068;-77
2023/09/01 01:56:01;;;;;;;7.93;3.80;;;;;;;;;;5108455;28;20032;-77
2023/09/01 01:58:27;;;;;;;7.10;3.40;;;;;;;;;;5103511;28;20066;-78
2023/09/01 02:00:52;;;;;;;3.40;2.72;;;;;;;;;;5105322;28;20495;-77
2023/09/01 02:03:17;;;;;;;3.65;3.13;;;;;;;;;;5105401;28;20031;-76
2023/09/01 02:05:43;;;;;;;4.50;2.30;;;;;;;;;;5110095;28;20371;-77
2023/09/01 02:08:08;;;;;;;4.60;2.80;;;;;;;;;;5110083;28;20095;-78
2023/09/01 02:10:33;;;;;;;3.50;2.63;;;;;;;;;;5107742;28;20104;-78
2023/09/01 02:13:00;;;;;;;5.30;3.00;;;;;;;;;;5105761;28;20047;-77
2023/09/01 02:15:25;;;;;;;2.78;2.50;;;;;;;;;;5105713;28;20040;-77
2023/09/01 02:17:51;;;;;;;3.40;2.95;;;;;;;;;;5106249;28;20072;-76
2023/09/01 02:20:16;;;;;;;4.68;2.42;;;;;;;;;;5110003;28;20028;-77
2023/09/01 02:22:44;;;;;;;7.53;2.75;;;;;;;;;;5104119;28;20035;-78
2023/09/01 02:25:09;;;;;;;2.72;2.30;;;;;;;;;;5107271;28;20078;-77
2023/09/01 02:27:38;;;;;;;2.72;2.53;;;;;;;;;;5104550;28;20064;-76
2023/09/01 02:30:04;;;;;;;3.10;2.35;;;;;;;;;;5109659;28;20066;-77
2023/09/01 02:32:29;;;;;;;2.85;2.40;;;;;;;;;;5109072;28;20012;-78
2023/09/01 02:34:54;;;;;;;2.35;2.10;;;;;;;;;;5110582;28;20401;-78
2023/09/01 02:37:20;;;;;;;3.47;2.25;;;;;;;;;;5101496;28;20039;-77
2023/09/01 02:39:45;;;;;;;2.97;2.40;;;;;;;;;;5105156;28;20031;-78
2023/09/01 02:42:10;;;;;;;2.75;2.33;;;;;;;;;;5106366;28;20042;-78
2023/09/01 02:44:35;;;;;;;3.35;2.35;;;;;;;;;;5110188;28;20047;-77
2023/09/01 02:47:01;;;;;;;2.30;2.10;;;;;;;;;;5103866;28;20449;-78
2023/09/01 02:49:26;;;;;;;3.05;2.20;;;;;;;;;;5102594;28;20036;-76
2023/09/01 02:51:51;;;;;;;3.95;1.90;;;;;;;;;;5106856;28;20181;-78
2023/09/01 02:54:17;;;;;;;3.58;2.13;;;;;;;;;;5108620;28;20028;-78
2023/09/01 02:56:42;;;;;;;5.88;2.10;;;;;;;;;;5099616;28;20019;-78
2023/09/01 02:59:07;;;;;;;2.03;1.80;;;;;;;;;;5108307;28;20036;-76
2023/09/01 03:01:32;;;;;;;4.70;1.85;;;;;;;;;;5106258;28;20390;-77
2023/09/01 03:03:58;;;;;;;2.72;1.98;;;;;;;;;;5108491;28;20122;-77
2023/09/01 03:06:23;;;;;;;2.03;1.92;;;;;;;;;;5106961;28;20119;-77
2023/09/01 03:08:48;;;;;;;2.00;1.80;;;;;;;;;;5109503;28;20035;-78
2023/09/01 03:11:13;;;;;;;2.03;1.77;;;;;;;;;;5103192;28;20541;-78
2023/09/01 03:13:40;;;;;;;3.70;1.95;;;;;;;;;;5108654;28;20103;-78
2023/09/01 03:16:06;;;;;;;1.90;1.77;;;;;;;;;;5106059;28;20032;-76
2023/09/01 03:18:31;;;;;;;2.00;1.58;;;;;;;;;;5111672;28;20035;-77
2023/09/01 03:21:09;;;;;;;2.03;1.70;;;;;;;;;;5112560;28;20049;-78
2023/09/01 03:23:34;;;;;;;6.63;2.08;;;;;;;;;;5104924;28;20051;-78
2023/09/01 03:25:59;;;;;;;3.58;1.80;;;;;;;;;;5107116;28;20408;-77
2023/09/01 03:28:25;;;;;;;2.03;1.90;;;;;;;;;;5104930;28;20043;-78
2023/09/01 03:30:50;;;;;;;7.43;2.83;;;;;;;;;;5110742;28;20490;-76
2023/09/01 03:33:15;;;;;;;2.30;1.70;;;;;;;;;;5108787;28;20061;-77
2023/09/01 03:35:41;;;;;;;2.25;1.92;;;;;;;;;;5106404;28;20098;-77
2023/09/01 03:38:06;;;;;;;2.00;1.80;;;;;;;;;;5102328;28;20035;-76
2023/09/01 03:40:32;;;;;;;2.10;1.90;;;;;;;;;;5105140;28;20510;-77
2023/09/01 03:42:57;;;;;;;2.08;1.70;;;;;;;;;;5102374;28;20036;-78
2023/09/01 03:45:22;;;;;;;2.15;1.92;;;;;;;;;;5095803;28;20119;-78
2023/09/01 03:47:47;;;;;;;2.90;1.88;;;;;;;;;;5103731;28;20053;-77
2023/09/01 03:50:13;;;;;;;3.20;1.60;;;;;;;;;;5104226;28;20531;-78
2023/09/01 03:52:38;;;;;;;2.00;1.83;;;;;;;;;;5101165;28;20039;-78
2023/09/01 03:55:04;;;;;;;2.47;1.73;;;;;;;;;;5097691;28;20059;-78
2023/09/01 03:57:29;;;;;;;3.13;2.17;;;;;;;;;;5099110;28;20044;-78
2023/09/01 03:59:54;;;;;;;2.17;1.73;;;;;;;;;;5104763;28;20520;-78
2023/09/01 04:02:20;;;;;;;2.10;1.88;;;;;;;;;;5103599;28;20486;-78
2023/09/01 04:04:45;;;;;;;1.95;1.75;;;;;;;;;;5101612;28;20388;-77
2023/09/01 04:07:10;;;;;;;4.07;2.08;;;;;;;;;;5106675;28;20035;-78
2023/09/01 04:09:36;;;;;;;3.05;1.90;;;;;;;;;;5101241;28;20112;-78
2023/09/01 04:12:01;;;;;;;2.65;2.05;;;;;;;;;;5102720;28;20516;-78
2023/09/01 04:14:26;;;;;;;1.85;1.75;;;;;;;;;;5100360;28;20451;-78
2023/09/01 04:16:51;;;;;;;2.58;1.90;;;;;;;;;;5103700;28;20036;-78
2023/09/01 04:19:17;;;;;;;2.88;1.65;;;;;;;;;;5104432;27;20032;-77
2023/09/01 04:21:42;;;;;;;4.50;1.63;;;;;;;;;;5103514;28;20393;-78
2023/09/01 04:24:08;;;;;;;2.08;1.80;;;;;;;;;;5105126;28;20028;-77
2023/09/01 04:26:34;;;;;;;2.28;1.45;;;;;;;;;;5103834;28;20031;-78
2023/09/01 04:28:59;;;;;;;2.25;1.60;;;;;;;;;;5096331;28;20363;-78
2023/09/01 04:31:29;;;;;;;2.15;1.85;;;;;;;;;;5105856;28;20383;-78
2023/09/01 04:33:57;;;;;;;1.33;1.33;;;;;;;;;;5104402;28;20053;-78
2023/09/01 04:36:23;;;;;;;3.08;1.70;;;;;;;;;;5106284;28;20016;-79
2023/09/01 04:38:48;;;;;;;1.92;1.63;;;;;;;;;;5105488;28;20028;-79
2023/09/01 04:41:14;;;;;;;1.60;1.50;;;;;;;;;;5104278;28;20036;-78
2023/09/01 04:43:39;;;;;;;1.40;1.30;;;;;;;;;;5099498;28;20062;-79
2023/09/01 04:46:04;;;;;;;1.70;1.60;;;;;;;;;;5107247;28;20134;-78
2023/09/01 04:48:30;;;;;;;1.48;1.38;;;;;;;;;;5105179;28;20042;-78
2023/09/01 04:50:56;;;;;;;2.92;1.60;;;;;;;;;;5103596;28;20427;-78
2023/09/01 04:53:21;;;;;;;1.58;1.48;;;;;;;;;;5104109;28;20035;-78
2023/09/01 04:55:47;;;;;;;2.10;1.33;;;;;;;;;;5101532;28;20422;-79
2023/09/01 04:58:13;;;;;;;2.78;1.63;;;;;;;;;;5102870;28;20032;-79
2023/09/01 05:00:38;;;;;;;1.85;1.33;;;;;;;;;;5103576;28;20075;-78
2023/09/01 05:03:04;;;;;;;1.48;1.38;;;;;;;;;;5103274;28;20031;-78
2023/09/01 05:05:29;;;;;;;1.98;1.63;;;;;;;;;;5102760;28;20039;-78
2023/09/01 05:07:55;;;;;;;1.42;1.23;;;;;;;;;;5101247;28;20055;-79
2023/09/01 05:10:20;;;;;;;1.65;1.10;;;;;;;;;;5095508;28;20032;-79
2023/09/01 05:12:45;;;;;;;2.03;1.30;;;;;;;;;;5102994;28;20028;-78
2023/09/01 05:15:12;;;;;;;1.30;1.20;;;;;;;;;;5109257;28;20386;-79
2023/09/01 05:17:37;;;;;;;1.58;1.33;;;;;;;;;;5112050;28;20020;-78
2023/09/01 05:20:07;;;;;;;3.47;1.52;;;;;;;;;;5105434;28;20032;-79
2023/09/01 05:22:32;;;;;;;2.05;1.42;;;;;;;;;;5103325;28;20025;-79
2023/09/01 05:24:58;;;;;;;2.25;1.70;;;;;;;;;;5101096;28;20128;-78
2023/09/01 05:27:23;;;;;;;2.35;1.52;;;;;;;;;;5111789;28;20031;-79
2023/09/01 05:29:49;;;;;;;1.50;1.40;;;;;;;;;;5101053;28;20475;-78
2023/09/01 05:32:15;;;;;;;2.90;1.45;;;;;;;;;;5098248;28;20490;-78
2023/09/01 05:34:41;;;;;;;2.88;1.50;;;;;;;;;;5101380;28;20197;-77
2023/09/01 05:37:07;;;;;;;3.40;1.50;;;;;;;;;;5098008;28;20615;-77
2023/09/01 05:39:34;;;;;;;2.88;1.20;;;;;;;;;;5097289;28;20028;-77
2023/09/01 05:41:59;;;;;;;1.70;1.60;;;;;;;;;;5099262;28;20016;-77
2023/09/01 05:44:24;;;;;;;4.28;1.65;;;;;;;;;;5102410;28;20104;-78
2023/09/01 05:46:50;;;;;;;1.40;1.30;;;;;;;;;;5101617;28;20075;-75
2023/09/01 05:49:16;;;;;;;1.38;1.23;;;;;;;;;;5103848;28;20279;-77
2023/09/01 05:51:41;;;;;;;1.33;1.23;;;;;;;;;;5097765;28;20059;-78
2023/09/01 05:54:06;;;;;;;3.03;1.30;;;;;;;;;;5106967;28;20072;-77
2023/09/01 05:56:31;;;;;;;2.50;1.30;;;;;;;;;;5102494;28;20024;-77
2023/09/01 05:58:57;;;;;;;1.48;1.35;;;;;;;;;;5104297;28;20165;-80
2023/09/01 06:01:22;;;;;;;1.45;1.27;;;;;;;;;;5101266;28;20040;-77
2023/09/01 06:03:47;;;;;;;4.82;1.52;;;;;;;;;;5095804;28;20040;-75
2023/09/01 06:06:13;;;;;;;1.48;1.30;;;;;;;;;;5091542;28;20470;-77
2023/09/01 06:08:38;;;;;;;2.10;1.50;;;;;;;;;;5097089;28;20027;-76
2023/09/01 06:11:05;;;;;;;1.45;1.20;;;;;;;;;;5102412;28;20036;-77
2023/09/01 06:13:31;;;;;;;2.33;1.60;;;;;;;;;;5100388;28;20051;-78
2023/09/01 06:15:56;;;;;;;5.03;1.70;;;;;;;;;;5099146;28;20044;-77
2023/09/01 06:18:21;;;;;;;1.50;1.40;;;;;;;;;;5091414;28;20428;-78
2023/09/01 06:20:47;;;;;;;1.80;1.65;;;;;;;;;;5101271;28;20025;-76
2023/09/01 06:23:12;;;;;;;1.30;1.20;;;;;;;;;;5095958;28;20020;-76
2023/09/01 06:25:37;;;;;;;2.30;1.35;;;;;;;;;;5099602;28;20036;-77
2023/09/01 06:28:03;;;;;;;1.63;1.35;;;;;;;;;;5106820;28;20060;-77
2023/09/01 06:30:29;;;;;;;1.33;1.23;;;;;;;;;;5100336;28;20032;-76
2023/09/01 06:32:54;;;;;;;2.10;1.38;;;;;;;;;;5099623;28;20016;-77
2023/09/01 06:35:19;;;;;;;2.30;1.40;;;;;;;;;;5101752;28;20028;-78
2023/09/01 06:37:44;;;;;;;4.03;1.55;;;;;;;;;;5103988;28;20039;-77
2023/09/01 06:40:10;;;;;;;1.73;1.23;;;;;;;;;;5102862;28;20490;-77
2023/09/01 06:42:35;;;;;;;2.63;1.60;;;;;;;;;;5093849;28;20094;-77
2023/09/01 06:45:01;;;;;;;1.80;1.30;;;;;;;;;;5101120;28;20032;-77
2023/09/01 06:47:26;;;;;;;1.10;1.05;;;;;;;;;;5098779;28;20044;-78
2023/09/01 06:49:52;;;;;;;1.95;1.40;;;;;;;;;;5106550;28;20040;-77
2023/09/01 06:52:18;;;;;;;2.20;1.30;;;;;;;;;;5093262;28;20539;-77
2023/09/01 06:54:43;;;;;;;1.70;1.30;;;;;;;;;;5105257;28;20043;-80
2023/09/01 06:57:08;;;;;;;1.20;1.15;;;;;;;;;;5112903;28;20099;-77
2023/09/01 06:59:33;;;;;;;1.85;1.52;;;;;;;;;;5104013;28;20397;-78
2023/09/01 07:01:59;;;;;;;1.55;1.45;;;;;;;;;;5108402;28;20039;-77
2023/09/01 07:04:27;;;;;;;1.30;1.20;;;;;;;;;;5104140;28;20115;-80
2023/09/01 07:06:52;;;;;;;1.25;1.17;;;;;;;;;;5104338;28;20043;-76
2023/09/01 07:09:18;;;;;;;2.67;1.48;;;;;;;;;;5102222;28;20031;-77
2023/09/01 07:11:43;;;;;;;3.97;1.75;;;;;;;;;;5107785;28;20023;-77
2023/09/01 07:14:09;;;;;;;2.35;1.60;;;;;;;;;;5103433;28;20031;-76
2023/09/01 07:16:34;;;;;;;1.50;1.40;;;;;;;;;;5098861;28;20114;-76
2023/09/01 07:18:59;;;;;;;1.33;1.23;;;;;;;;;;5106215;27;20491;-77
2023/09/01 07:21:24;;;;;;;2.30;1.38;;;;;;;;;;5101011;28;20024;-77
2023/09/01 07:23:50;;;;;;;3.17;1.40;;;;;;;;;;5100319;28;20085;-77
2023/09/01 07:26:15;;;;;;;2.42;1.42;;;;;;;;;;5099762;28;20120;-76
2023/09/01 07:28:41;;;;;;;1.40;1.30;;;;;;;;;;5097448;28;20062;-77
2023/09/01 07:31:12;;;;;;;3.65;1.50;;;;;;;;;;5099443;28;20203;-78
2023/09/01 07:33:41;;;;;;;1.67;1.58;;;;;;;;;;5108936;28;20513;-77
2023/09/01 07:36:10;;;;;;;1.23;1.20;;;;;;;;;;5099659;28;20024;-78
2023/09/01 07:38:39;;;;;;;4.38;1.70;;;;;;;;;;5103770;28;20033;-78
2023/09/01 07:41:04;;;;;;;2.03;1.38;;;;;;;;;;5098814;28;20032;-76
2023/09/01 07:43:30;;;;;;;1.20;1.20;;;;;;;;;;5103900;28;20525;-78
2023/09/01 07:45:56;;;;;;;1.70;1.48;;;;;;;;;;5098660;28;20036;-77
2023/09/01 07:48:21;;;;;;;2.10;1.38;;;;;;;;;;5101912;28;20416;-77
2023/09/01 07:50:46;;;;;;;2.63;1.38;;;;;;;;;;5098672;28;20496;-76
2023/09/01 07:53:12;;;;;;;1.38;1.23;;;;;;;;;;5104276;28;20028;-77
2023/09/01 07:55:37;;;;;;;1.88;1.45;;;;;;;;;;5106014;28;20032;-78
2023/09/01 07:58:03;;;;;;;1.30;1.17;;;;;;;;;;5111842;28;20481;-78
2023/09/01 08:00:28;;;;;;;5.25;1.38;;;;;;;;;;5102389;28;20102;-79
2023/09/01 08:02:54;;;;;;;1.63;1.10;;;;;;;;;;5106106;28;20428;-78
2023/09/01 08:05:19;;;;;;;2.15;1.25;;;;;;;;;;5113436;28;20388;-77
2023/09/01 08:07:46;;;;;;;2.60;1.45;;;;;;;;;;5096309;28;20531;-78
2023/09/01 08:10:12;;;;;;;1.38;1.27;;;;;;;;;;5091626;28;20463;-79
2023/09/01 08:12:37;;;;;;;1.42;1.23;;;;;;;;;;5102493;28;20032;-76
2023/09/01 08:15:03;;;;;;;3.33;1.27;;;;;;;;;;5103932;28;20020;-78
2023/09/01 08:17:28;;;;;;;2.67;1.10;;;;;;;;;;5092976;28;20094;-77
2023/09/01 08:19:53;;;;;;;7.78;1.38;;;;;;;;;;5100822;28;20058;-77
2023/09/01 08:22:19;;;;;;;1.38;1.27;;;;;;;;;;5100965;28;20391;-78
2023/09/01 08:24:44;;;;;;;2.47;1.10;;;;;;;;;;5098260;28;20067;-76
2023/09/01 08:27:10;;;;;;;1.13;1.08;;;;;;;;;;5094929;28;20008;-78
2023/09/01 08:29:35;;;;;;;3.80;1.20;;;;;;;;;;5104344;28;20023;-77
2023/09/01 08:32:01;;;;;;;1.85;1.35;;;;;;;;;;5098361;28;20055;-75
2023/09/01 08:34:29;;;;;;;1.40;1.30;;;;;;;;;;5099769;28;20131;-78
2023/09/01 08:36:54;;;;;;;1.58;1.27;;;;;;;;;;5097389;28;20138;-77
2023/09/01 08:39:20;;;;;;;1.55;1.17;;;;;;;;;;5097920;28;20502;-77
2023/09/01 08:41:49;;;;;;;1.38;1.27;;;;;;;;;;5102101;28;20077;-76
2023/09/01 08:44:14;;;;;;;1.33;1.23;;;;;;;;;;5101434;28;20656;-78
2023/09/01 08:46:40;;;;;;;4.20;1.10;;;;;;;;;;5105366;27;20042;-77
2023/09/01 08:49:06;;;;;;;4.30;1.20;;;;;;;;;;5098218;28;20394;-77
2023/09/01 08:51:32;;;;;;;1.70;1.08;;;;;;;;;;5096675;28;20507;-78
2023/09/01 08:53:58;;;;;;;1.20;1.10;;;;;;;;;;5102959;28;20014;-78
2023/09/01 08:56:24;;;;;;;3.58;1.27;;;;;;;;;;5101951;28;20409;-77
2023/09/01 08:58:49;;;;;;;2.58;1.35;;;;;;;;;;5102351;28;20031;-78
2023/09/01 09:01:15;;;;;;;3.53;1.10;;;;;;;;;;5105346;28;20032;-78
2023/09/01 09:03:41;;;;;;;1.20;1.10;;;;;;;;;;5103820;28;20494;-78
2023/09/01 09:06:06;;;;;;;2.42;1.02;;;;;;;;;;5104537;28;20034;-78
2023/09/01 09:08:34;;;;;;;1.20;1.10;;;;;;;;;;5109129;28;20031;-78
2023/09/01 09:10:59;;;;;;;1.23;1.08;;;;;;;;;;5102630;28;20043;-77
2023/09/01 09:13:29;;;;;;;2.97;1.35;;;;;;;;;;5106390;28;20027;-77
2023/09/01 09:16:21;;;;;;;1.13;1.00;;;;;;;;;;5098087;27;20078;-76
2023/09/01 09:18:47;;;;;;;1.05;1.02;;;;;;;;;;5097416;28;20057;-78
2023/09/01 09:21:23;;;;;;;3.97;1.10;;;;;;;;;;5103249;28;20028;-78
2023/09/01 09:23:49;;;;;;;2.53;1.30;;;;;;;;;;5099488;28;20112;-78
2023/09/01 09:26:15;;;;;;;2.75;1.05;;;;;;;;;;5101341;28;20188;-75
2023/09/01 09:28:40;;;;;;;2.70;1.10;;;;;;;;;;5108298;28;20035;-77
2023/09/01 09:31:06;;;;;;;1.83;1.20;;;;;;;;;;5099451;28;20513;-77
2023/09/01 09:33:34;;;;;;;2.25;1.30;;;;;;;;;;5106144;28;20097;-78
2023/09/01 09:36:00;;;;;;;2.05;1.23;;;;;;;;;;5098694;28;20032;-78
2023/09/01 09:38:46;;;;;;;2.47;1.33;;;;;;;;;;5101687;28;20028;-75
2023/09/01 09:41:13;;;;;;;1.05;1.05;;;;;;;;;;5107025;28;20030;-78
2023/09/01 09:43:46;;;;;;;3.53;1.20;;;;;;;;;;5101438;28;20032;-78
2023/09/01 09:46:12;;;;;;;1.33;1.23;;;;;;;;;;5091338;28;20566;-78
2023/09/01 09:48:39;;;;;;;1.92;1.25;;;;;;;;;;5110588;28;20036;-78
2023/09/01 09:51:07;;;;;;;1.17;1.05;;;;;;;;;;5102009;28;20028;-77
2023/09/01 09:53:34;;;;;;;1.30;1.10;;;;;;;;;;5088817;28;20016;-77
2023/09/01 09:56:30;;;;;;;2.67;1.30;;;;;;;;;;5094471;28;20067;-77
2023/09/01 09:59:01;;;;;;;2.30;1.10;;;;;;;;;;5100672;28;20111;-78
2023/09/01 10:01:29;;;;;;;4.05;1.10;;;;;;;;;;5090242;28;20042;-77
2023/09/01 10:03:55;;;;;;;1.25;1.10;;;;;;;;;;5099784;28;20564;-78
2023/09/01 10:06:21;;;;;;;1.30;1.15;;;;;;;;;;5111142;28;20107;-79
2023/09/01 10:08:47;;;;;;;1.67;1.05;;;;;;;;;;5105049;28;20504;-78
2023/09/01 10:11:14;;;;;;;2.55;1.33;;;;;;;;;;5095288;28;20032;-77
2023/09/01 10:13:44;;;;;;;1.05;0.95;;;;;;;;;;5100200;28;20036;-78
2023/09/01 10:16:10;;;;;;;1.73;1.20;;;;;;;;;;5099027;28;20035;-77
2023/09/01 10:18:36;;;;;;;1.15;1.05;;;;;;;;;;5099084;28;20473;-76
2023/09/01 10:21:02;;;;;;;1.20;1.10;;;;;;;;;;5103973;28;20020;-78
2023/09/01 10:23:28;;;;;;;1.35;1.05;;;;;;;;;;5111560;28;20039;-79
2023/09/01 10:26:16;;;;;;;1.35;1.25;;;;;;;;;;5100745;28;20036;-78
2023/09/01 10:29:03;;;;;;;4.78;1.30;;;;;;;;;;5101734;28;20046;-78
2023/09/01 10:31:29;;;;;;;1.85;1.40;;;;;;;;;;5096092;28;20514;-77
2023/09/01 10:34:15;;;;;;;2.15;1.20;;;;;;;;;;5109185;28;20044;-77
2023/09/01 10:36:45;;;;;;;1.20;1.10;;;;;;;;;;5103159;28;20118;-78
2023/09/01 10:39:18;;;;;;;0.95;0.95;;;;;;;;;;5107139;28;20478;-75
2023/09/01 10:41:50;;;;;;;2.03;1.27;;;;;;;;;;5106795;28;20028;-78
2023/09/01 10:44:16;;;;;;;2.80;1.15;;;;;;;;;;5102160;28;20055;-78
2023/09/01 10:46:41;;;;;;;1.38;1.00;;;;;;;;;;5108102;28;20502;-78
2023/09/01 10:49:08;;;;;;;2.30;1.27;;;;;;;;;;5110830;28;20035;-79
2023/09/01 10:51:37;;;;;;;1.20;1.10;;;;;;;;;;5105840;28;20067;-78
2023/09/01 10:54:22;;;;;;;1.00;1.00;;;;;;;;;;5099470;28;20114;-78
2023/09/01 10:57:03;;;;;;;1.60;1.00;;;;;;;;;;5109623;28;20039;-78
2023/09/01 10:59:30;;;;;;;1.88;1.27;;;;;;;;;;5108553;28;20043;-77
2023/09/01 11:01:56;;;;;;;1.95;1.20;;;;;;;;;;5100625;28;20028;-76
2023/09/01 11:04:21;;;;;;;1.98;1.20;;;;;;;;;;5105574;28;20108;-78
2023/09/01 11:06:59;;;;;;;1.20;1.10;;;;;;;;;;5104889;28;20524;-77
2023/09/01 11:09:33;;;;;;;1.02;1.02;;;;;;;;;;5109253;28;20032;-77
2023/09/01 11:12:06;;;;;;;1.25;1.00;;;;;;;;;;5076673;28;20360;-77
2023/09/01 11:14:32;;;;;;;1.65;0.98;;;;;;;;;;5103935;28;20046;-77
2023/09/01 11:16:58;;;;;;;1.15;1.00;;;;;;;;;;5112610;28;20039;-77
2023/09/01 11:19:24;;;;;;;1.05;1.05;;;;;;;;;;5112494;28;20036;-77
2023/09/01 11:21:49;;;;;;;1.83;1.13;;;;;;;;;;5095901;28;20032;-78
2023/09/01 11:24:20;;;;;;;2.85;1.08;;;;;;;;;;5096692;28;20024;-75
2023/09/01 11:26:45;;;;;;;1.73;1.10;;;;;;;;;;5107106;28;20024;-76
2023/09/01 11:29:12;;;;;;;2.72;1.08;;;;;;;;;;5109736;28;20135;-78
2023/09/01 11:31:38;;;;;;;1.25;1.13;;;;;;;;;;5104132;28;20115;-76
2023/09/01 11:34:04;;;;;;;3.15;1.00;;;;;;;;;;5100539;28;20066;-76
2023/09/01 11:36:29;;;;;;;2.33;1.35;;;;;;;;;;5101737;28;20024;-77
2023/09/01 11:38:54;;;;;;;1.20;1.13;;;;;;;;;;5103763;28;20031;-78
2023/09/01 11:41:21;;;;;;;1.52;1.00;;;;;;;;;;5112443;28;20087;-76
2023/09/01 11:43:46;;;;;;;1.10;1.00;;;;;;;;;;5100877;28;20040;-76
2023/09/01 11:46:12;;;;;;;1.55;1.10;;;;;;;;;;5103254;28;20039;-77
2023/09/01 11:48:38;;;;;;;1.25;1.00;;;;;;;;;;5101116;28;20028;-77
2023/09/01 11:51:08;;;;;;;1.38;1.30;;;;;;;;;;5103752;28;20104;-77
2023/09/01 11:53:34;;;;;;;1.48;1.27;;;;;;;;;;5113286;28;20065;-77
2023/09/01 11:56:01;;;;;;;1.08;1.08;;;;;;;;;;5110399;28;20048;-77
2023/09/01 11:58:32;;;;;;;1.27;1.10;;;;;;;;;;5104634;28;20051;-78
2023/09/01 12:01:08;;;;;;;1.35;1.20;;;;;;;;;;5095925;28;20043;-78
2023/09/01 12:03:33;;;;;;;1.08;1.00;;;;;;;;;;5097927;28;20456;-76
2023/09/01 12:05:59;;;;;;;1.38;1.08;;;;;;;;;;5109303;28;20016;-77
2023/09/01 12:08:25;;;;;;;2.33;0.90;;;;;;;;;;5100923;28;20180;-77
2023/09/01 12:11:04;;;;;;;1.02;1.00;;;;;;;;;;5095196;28;20039;-77
2023/09/01 12:13:31;;;;;;;1.20;1.10;;;;;;;;;;5101385;28;20039;-78
2023/09/01 12:16:01;;;;;;;2.63;1.25;;;;;;;;;;5113900;28;20566;-78
2023/09/01 12:18:39;;;;;;;1.10;1.10;;;;;;;;;;5109028;28;20059;-78
2023/09/01 12:21:10;;;;;;;0.98;0.93;;;;;;;;;;5113530;28;20035;-78
2023/09/01 12:23:43;;;;;;;0.80;0.80;;;;;;;;;;5113000;28;20411;-78
2023/09/01 12:26:09;;;;;;;0.90;0.90;;;;;;;;;;5098296;28;20028;-78
2023/09/01 12:28:41;;;;;;;1.20;1.00;;;;;;;;;;5106212;28;20036;-77
2023/09/01 12:31:08;;;;;;;3.25;1.40;;;;;;;;;;5101770;28;20052;-78
2023/09/01 12:33:35;;;;;;;1.00;1.00;;;;;;;;;;5105467;28;20120;-78
2023/09/01 12:36:01;;;;;;;1.00;1.00;;;;;;;;;;5109602;28;20027;-78
2023/09/01 12:38:26;;;;;;;1.25;1.15;;;;;;;;;;5095523;27;20506;-78
2023/09/01 12:40:51;;;;;;;1.10;1.00;;;;;;;;;;5104904;27;20084;-74
2023/09/01 12:43:17;;;;;;;1.20;1.10;;;;;;;;;;5106809;28;20127;-77
2023/09/01 12:45:43;;;;;;;1.65;1.40;;;;;;;;;;5103651;28;20032;-79
2023/09/01 12:48:08;;;;;;;1.10;1.10;;;;;;;;;;5106839;28;20020;-78
2023/09/01 12:50:34;;;;;;;1.20;1.10;;;;;;;;;;5109668;28;20024;-77
2023/09/01 12:52:59;;;;;;;2.97;1.10;;;;;;;;;;5093747;28;20028;-77
2023/09/01 12:55:26;;;;;;;1.27;1.20;;;;;;;;;;5098036;28;20044;-77
2023/09/01 12:57:52;;;;;;;3.65;1.35;;;;;;;;;;5101861;28;20032;-77
2023/09/01 13:00:19;;;;;;;1.50;1.40;;;;;;;;;;5100172;28;20048;-76
2023/09/01 13:02:45;;;;;;;1.58;1.10;;;;;;;;;;5101138;28;20045;-76
2023/09/01 13:05:11;;;;;;;1.30;1.20;;;;;;;;;;5098530;28;20497;-78
2023/09/01 13:07:37;;;;;;;1.20;1.10;;;;;;;;;;5096433;28;20027;-76
2023/09/01 13:10:03;;;;;;;1.20;1.10;;;;;;;;;;5098810;28;20449;-77
2023/09/01 13:12:28;;;;;;;2.47;1.10;;;;;;;;;;5097570;28;20115;-77
2023/09/01 13:14:57;;;;;;;1.30;1.00;;;;;;;;;;5104369;28;20035;-77
2023/09/01 13:17:26;;;;;;;1.30;1.13;;;;;;;;;;5099932;28;20118;-76
2023/09/01 13:19:54;;;;;;;0.90;0.90;;;;;;;;;;5104218;28;20119;-77
2023/09/01 13:22:19;;;;;;;1.30;1.20;;;;;;;;;;5105768;28;20042;-76
2023/09/01 13:24:44;;;;;;;1.38;1.27;;;;;;;;;;5099718;28;20047;-77
2023/09/01 13:27:10;;;;;;;1.10;1.10;;;;;;;;;;5102597;28;20469;-77
2023/09/01 13:29:35;;;;;;;1.00;1.00;;;;;;;;;;5089512;28;20032;-75
2023/09/01 13:32:00;;;;;;;1.50;1.15;;;;;;;;;;5092952;28;20565;-76
2023/09/01 13:34:26;;;;;;;1.92;1.20;;;;;;;;;;5068009;28;20101;-77
2023/09/01 13:36:51;;;;;;;1.40;1.25;;;;;;;;;;5093411;28;20032;-77
2023/09/01 13:39:16;;;;;;;4.78;1.15;;;;;;;;;;5089763;28;20023;-77
2023/09/01 13:41:41;;;;;;;1.63;1.10;;;;;;;;;;5092037;28;20537;-75
2023/09/01 13:44:07;;;;;;;1.42;1.33;;;;;;;;;;5091138;28;20028;-77
2023/09/01 13:46:32;;;;;;;1.10;1.10;;;;;;;;;;5084963;28;20623;-77
2023/09/01 13:48:59;;;;;;;2.72;1.20;;;;;;;;;;5100237;28;20032;-75
2023/09/01 13:51:26;;;;;;;1.17;1.15;;;;;;;;;;5097326;28;20035;-76
2023/09/01 13:53:52;;;;;;;1.88;1.40;;;;;;;;;;5093436;28;20055;-76
2023/09/01 13:56:18;;;;;;;1.33;1.05;;;;;;;;;;5098385;28;20028;-76
2023/09/01 13:58:44;;;;;;;1.13;1.02;;;;;;;;;;5099829;28;20039;-77
2023/09/01 14:01:09;;;;;;;1.17;1.08;;;;;;;;;;5096291;28;20032;-76
2023/09/01 14:03:36;;;;;;;1.35;1.25;;;;;;;;;;5107644;28;20065;-76
2023/09/01 14:06:08;;;;;;;1.00;1.00;;;;;;;;;;5097781;28;20027;-76
2023/09/01 14:08:34;;;;;;;1.00;1.00;;;;;;;;;;5096726;28;20047;-77
2023/09/01 14:11:00;;;;;;;0.98;0.98;;;;;;;;;;5088244;28;20038;-77
2023/09/01 14:13:26;;;;;;;2.40;1.35;;;;;;;;;;5101260;28;20118;-76
2023/09/01 14:15:56;;;;;;;1.30;1.20;;;;;;;;;;5092719;28;20035;-76
2023/09/01 14:18:23;;;;;;;1.90;1.30;;;;;;;;;;5092814;28;20298;-76
2023/09/01 14:20:52;;;;;;;2.33;1.27;;;;;;;;;;5093808;28;20424;-76
2023/09/01 14:23:18;;;;;;;1.42;1.27;;;;;;;;;;5096931;28;20036;-76
2023/09/01 14:25:43;;;;;;;1.35;1.25;;;;;;;;;;5097694;28;20043;-76
2023/09/01 14:28:08;;;;;;;1.77;1.42;;;;;;;;;;5095235;28;20119;-77
2023/09/01 14:30:36;;;;;;;1.27;1.15;;;;;;;;;;5098458;28;20506;-77
2023/09/01 14:33:02;;;;;;;2.03;1.40;;;;;;;;;;5080074;28;20025;-77
2023/09/01 14:35:27;;;;;;;1.33;1.25;;;;;;;;;;5089752;28;20035;-77
2023/09/01 14:37:52;;;;;;;1.35;1.25;;;;;;;;;;5095384;28;20103;-74
2023/09/01 14:40:18;;;;;;;1.10;1.10;;;;;;;;;;5096583;28;20561;-77
2023/09/01 14:42:44;;;;;;;1.92;1.20;;;;;;;;;;5107184;28;20050;-79